sensor_id;sensor_type;location;lat;lon;timestamp;P1;durP1;ratioP1;P2;durP2;ratioP2
60002;SDS011;46322;52.018;8.702;2023-04-28T00:03:12;108.90;;;97.50;;
60002;SDS011;46322;52.018;8.702;2023-04-28T00:08:33;113.53;;;101.80;;
60002;SDS011;46322;52.018;8.702;2023-04-28T00:13:54;113.80;;;102.78;;
60002;SDS011;46322;52.018;8.702;2023-04-28T00:19:14;116.03;;;105.10;;
60002;SDS011;46322;52.018;8.702;2023-04-28T00:24:35;111.70;;;100.35;;
60002;SDS011;46322;52.018;8.702;2023-04-28T00:29:55;113.78;;;102.32;;
60002;SDS011;46322;52.018;8.702;2023-04-28T00:35:16;110.63;;;98.72;;
60002;SDS011;46322;52.018;8.702;2023-04-28T00:40:37;118.40;;;107.20;;
60002;SDS011;46322;52.018;8.702;2023-04-28T00:45:58;112.93;;;101.93;;
60002;SDS011;46322;52.018;8.702;2023-04-28T00:51:19;111.55;;;99.75;;
60002;SDS011;46322;52.018;8.702;2023-04-28T00:56:39;113.70;;;102.90;;
60002;SDS011;46322;52.018;8.702;2023-04-28T01:02:00;113.70;;;102.70;;
60002;SDS011;46322;52.018;8.702;2023-04-28T01:07:21;113.50;;;103.00;;
60002;SDS011;46322;52.018;8.702;2023-04-28T01:12:42;117.43;;;106.63;;
60002;SDS011;46322;52.018;8.702;2023-04-28T01:18:03;116.97;;;106.18;;
60002;SDS011;46322;52.018;8.702;2023-04-28T01:23:23;116.82;;;106.35;;
60002;SDS011;46322;52.018;8.702;2023-04-28T01:28:44;119.30;;;108.55;;
60002;SDS011;46322;52.018;8.702;2023-04-28T01:34:04;113.07;;;102.35;;
60002;SDS011;46322;52.018;8.702;2023-04-28T01:39:25;119.75;;;109.15;;
60002;SDS011;46322;52.018;8.702;2023-04-28T01:44:46;112.82;;;102.43;;
60002;SDS011;46322;52.018;8.702;2023-04-28T01:50:06;114.45;;;104.07;;
60002;SDS011;46322;52.018;8.702;2023-04-28T01:55:27;112.27;;;101.63;;
60002;SDS011;46322;52.018;8.702;2023-04-28T02:00:48;110.20;;;99.90;;
60002;SDS011;46322;52.018;8.702;2023-04-28T02:06:08;118.37;;;107.87;;
60002;SDS011;46322;52.018;8.702;2023-04-28T02:11:29;119.68;;;109.10;;
60002;SDS011;46322;52.018;8.702;2023-04-28T02:16:49;114.07;;;103.47;;
60002;SDS011;46322;52.018;8.702;2023-04-28T02:22:10;113.78;;;103.28;;
60002;SDS011;46322;52.018;8.702;2023-04-28T02:27:31;111.00;;;100.77;;
60002;SDS011;46322;52.018;8.702;2023-04-28T02:32:51;115.78;;;104.97;;
60002;SDS011;46322;52.018;8.702;2023-04-28T02:38:12;116.63;;;105.82;;
60002;SDS011;46322;52.018;8.702;2023-04-28T02:43:32;118.32;;;107.32;;
60002;SDS011;46322;52.018;8.702;2023-04-28T02:48:53;117.33;;;106.43;;
60002;SDS011;46322;52.018;8.702;2023-04-28T02:54:14;109.50;;;98.40;;
60002;SDS011;46322;52.018;8.702;2023-04-28T02:59:34;112.53;;;101.57;;
60002;SDS011;46322;52.018;8.702;2023-04-28T03:04:55;117.68;;;106.47;;
60002;SDS011;46322;52.018;8.702;2023-04-28T03:10:16;110.50;;;98.83;;
60002;SDS011;46322;52.018;8.702;2023-04-28T03:15:36;112.65;;;101.07;;
60002;SDS011;46322;52.018;8.702;2023-04-28T03:20:57;116.60;;;106.05;;
60002;SDS011;46322;52.018;8.702;2023-04-28T03:26:17;117.63;;;107.57;;
60002;SDS011;46322;52.018;8.702;2023-04-28T03:31:38;116.53;;;106.00;;
60002;SDS011;46322;52.018;8.702;2023-04-28T03:36:58;112.70;;;101.40;;
60002;SDS011;46322;52.018;8.702;2023-04-28T03:42:19;114.10;;;102.80;;
60002;SDS011;46322;52.018;8.702;2023-04-28T03:47:40;113.78;;;102.30;;
60002;SDS011;46322;52.018;8.702;2023-04-28T03:53:00;113.10;;;101.60;;
60002;SDS011;46322;52.018;8.702;2023-04-28T03:58:21;109.65;;;97.55;;
60002;SDS011;46322;52.018;8.702;2023-04-28T04:03:41;118.57;;;107.95;;
60002;SDS011;46322;52.018;8.702;2023-04-28T04:09:02;115.63;;;105.03;;
60002;SDS011;46322;52.018;8.702;2023-04-28T04:14:23;111.33;;;101.10;;
60002;SDS011;46322;52.018;8.702;2023-04-28T04:19:43;117.22;;;106.32;;
60002;SDS011;46322;52.018;8.702;2023-04-28T04:25:04;113.85;;;103.15;;
60002;SDS011;46322;52.018;8.702;2023-04-28T04:30:25;114.65;;;103.72;;
60002;SDS011;46322;52.018;8.702;2023-04-28T04:35:46;112.80;;;102.20;;
60002;SDS011;46322;52.018;8.702;2023-04-28T04:41:06;112.13;;;101.43;;
60002;SDS011;46322;52.018;8.702;2023-04-28T04:46:27;120.30;;;109.63;;
60002;SDS011;46322;52.018;8.702;2023-04-28T04:51:47;115.00;;;104.60;;
60002;SDS011;46322;52.018;8.702;2023-04-28T04:57:08;117.03;;;106.53;;
60002;SDS011;46322;52.018;8.702;2023-04-28T05:02:29;117.55;;;107.05;;
60002;SDS011;46322;52.018;8.702;2023-04-28T05:07:49;119.40;;;108.82;;
60002;SDS011;46322;52.018;8.702;2023-04-28T05:13:10;112.03;;;100.35;;
60002;SDS011;46322;52.018;8.702;2023-04-28T05:18:30;111.68;;;99.97;;
60002;SDS011;46322;52.018;8.702;2023-04-28T05:23:51;110.85;;;99.82;;
60002;SDS011;46322;52.018;8.702;2023-04-28T05:29:12;113.10;;;101.67;;
60002;SDS011;46322;52.018;8.702;2023-04-28T05:34:32;112.53;;;101.00;;
60002;SDS011;46322;52.018;8.702;2023-04-28T05:39:53;109.37;;;97.27;;
60002;SDS011;46322;52.018;8.702;2023-04-28T05:45:14;111.00;;;96.27;;
60002;SDS011;46322;52.018;8.702;2023-04-28T05:50:34;110.57;;;100.38;;
60002;SDS011;46322;52.018;8.702;2023-04-28T05:55:55;120.27;;;109.63;;
60002;SDS011;46322;52.018;8.702;2023-04-28T06:01:16;116.60;;;106.18;;
60002;SDS011;46322;52.018;8.702;2023-04-28T06:06:37;109.47;;;99.07;;
60002;SDS011;46322;52.018;8.702;2023-04-28T06:11:57;112.03;;;101.23;;
60002;SDS011;46322;52.018;8.702;2023-04-28T06:17:18;111.03;;;100.03;;
60002;SDS011;46322;52.018;8.702;2023-04-28T06:22:39;109.97;;;99.37;;
60002;SDS011;46322;52.018;8.702;2023-04-28T06:28:00;110.10;;;99.35;;
60002;SDS011;46322;52.018;8.702;2023-04-28T06:33:21;113.80;;;103.00;;
60002;SDS011;46322;52.018;8.702;2023-04-28T06:38:41;117.22;;;106.60;;
60002;SDS011;46322;52.018;8.702;2023-04-28T06:44:02;113.50;;;103.60;;
60002;SDS011;46322;52.018;8.702;2023-04-28T06:49:22;114.85;;;104.18;;
60002;SDS011;46322;52.018;8.702;2023-04-28T06:54:43;115.60;;;105.37;;
60002;SDS011;46322;52.018;8.702;2023-04-28T07:00:04;107.03;;;96.82;;
60002;SDS011;46322;52.018;8.702;2023-04-28T07:05:25;106.82;;;96.93;;
60002;SDS011;46322;52.018;8.702;2023-04-28T07:10:45;112.93;;;102.83;;
60002;SDS011;46322;52.018;8.702;2023-04-28T07:16:06;109.35;;;99.45;;
60002;SDS011;46322;52.018;8.702;2023-04-28T07:21:27;106.50;;;96.37;;
60002;SDS011;46322;52.018;8.702;2023-04-28T07:26:47;104.20;;;93.57;;
60002;SDS011;46322;52.018;8.702;2023-04-28T07:32:08;105.32;;;94.72;;
60002;SDS011;46322;52.018;8.702;2023-04-28T07:37:29;108.43;;;98.03;;
60002;SDS011;46322;52.018;8.702;2023-04-28T07:42:50;98.70;;;88.40;;
60002;SDS011;46322;52.018;8.702;2023-04-28T07:48:10;83.55;;;70.63;;
60002;SDS011;46322;52.018;8.702;2023-04-28T07:53:31;80.47;;;52.40;;
60002;SDS011;46322;52.018;8.702;2023-04-28T07:58:51;71.00;;;38.28;;
60002;SDS011;46322;52.018;8.702;2023-04-28T08:04:12;65.37;;;35.13;;
60002;SDS011;46322;52.018;8.702;2023-04-28T08:09:33;64.20;;;32.65;;
60002;SDS011;46322;52.018;8.702;2023-04-28T08:14:53;79.93;;;31.93;;
60002;SDS011;46322;52.018;8.702;2023-04-28T08:20:14;75.50;;;32.25;;
60002;SDS011;46322;52.018;8.702;2023-04-28T08:25:35;75.77;;;31.87;;
60002;SDS011;46322;52.018;8.702;2023-04-28T08:30:55;75.10;;;32.10;;
60002;SDS011;46322;52.018;8.702;2023-04-28T08:36:16;73.77;;;32.33;;
60002;SDS011;46322;52.018;8.702;2023-04-28T08:41:37;78.63;;;32.05;;
60002;SDS011;46322;52.018;8.702;2023-04-28T08:46:58;76.70;;;32.10;;
60002;SDS011;46322;52.018;8.702;2023-04-28T08:52:19;75.85;;;32.55;;
60002;SDS011;46322;52.018;8.702;2023-04-28T08:57:44;87.50;;;32.20;;
60002;SDS011;46322;52.018;8.702;2023-04-28T09:03:08;78.13;;;32.92;;
60002;SDS011;46322;52.018;8.702;2023-04-28T09:08:28;73.88;;;33.38;;
60002;SDS011;46322;52.018;8.702;2023-04-28T09:13:49;77.35;;;32.40;;
60002;SDS011;46322;52.018;8.702;2023-04-28T09:19:09;82.60;;;32.30;;
60002;SDS011;46322;52.018;8.702;2023-04-28T09:24:37;81.77;;;32.17;;
60002;SDS011;46322;52.018;8.702;2023-04-28T09:29:58;77.83;;;32.30;;
60002;SDS011;46322;52.018;8.702;2023-04-28T09:35:37;79.07;;;31.48;;
60002;SDS011;46322;52.018;8.702;2023-04-28T09:41:00;83.27;;;31.30;;
60002;SDS011;46322;52.018;8.702;2023-04-28T09:46:27;86.20;;;31.90;;
60002;SDS011;46322;52.018;8.702;2023-04-28T09:51:48;85.72;;;31.95;;
60002;SDS011;46322;52.018;8.702;2023-04-28T09:57:09;86.07;;;31.75;;
60002;SDS011;46322;52.018;8.702;2023-04-28T10:02:30;95.97;;;31.42;;
60002;SDS011;46322;52.018;8.702;2023-04-28T10:07:51;87.18;;;31.38;;
60002;SDS011;46322;52.018;8.702;2023-04-28T10:13:11;72.97;;;32.17;;
60002;SDS011;46322;52.018;8.702;2023-04-28T10:18:32;66.60;;;31.90;;
60002;SDS011;46322;52.018;8.702;2023-04-28T10:24:04;73.25;;;31.45;;
60002;SDS011;46322;52.018;8.702;2023-04-28T10:29:29;75.63;;;31.43;;
60002;SDS011;46322;52.018;8.702;2023-04-28T10:34:51;76.00;;;31.60;;
60002;SDS011;46322;52.018;8.702;2023-04-28T10:40:29;75.05;;;31.48;;
60002;SDS011;46322;52.018;8.702;2023-04-28T10:56:35;79.20;;;33.13;;
60002;SDS011;46322;52.018;8.702;2023-04-28T11:02:00;89.53;;;32.63;;
60002;SDS011;46322;52.018;8.702;2023-04-28T11:13:37;79.20;;;32.83;;
60002;SDS011;46322;52.018;8.702;2023-04-28T11:18:59;77.97;;;33.47;;
60002;SDS011;46322;52.018;8.702;2023-04-28T11:24:20;79.78;;;32.67;;
60002;SDS011;46322;52.018;8.702;2023-04-28T11:29:42;75.10;;;33.50;;
60002;SDS011;46322;52.018;8.702;2023-04-28T11:35:02;73.72;;;33.20;;
60002;SDS011;46322;52.018;8.702;2023-04-28T11:40:23;78.30;;;33.43;;
60002;SDS011;46322;52.018;8.702;2023-04-28T11:45:45;72.32;;;34.15;;
60002;SDS011;46322;52.018;8.702;2023-04-28T11:51:05;70.93;;;35.83;;
60002;SDS011;46322;52.018;8.702;2023-04-28T11:56:26;77.73;;;35.53;;
60002;SDS011;46322;52.018;8.702;2023-04-28T12:01:48;79.75;;;36.70;;
60002;SDS011;46322;52.018;8.702;2023-04-28T12:07:14;68.60;;;38.47;;
60002;SDS011;46322;52.018;8.702;2023-04-28T12:12:35;96.80;;;35.83;;
60002;SDS011;46322;52.018;8.702;2023-04-28T12:17:56;31.80;;;24.47;;
60002;SDS011;46322;52.018;8.702;2023-04-28T12:23:29;104.43;;;34.88;;
60002;SDS011;46322;52.018;8.702;2023-04-28T12:28:53;66.85;;;37.30;;
60002;SDS011;46322;52.018;8.702;2023-04-28T12:34:13;67.17;;;38.07;;
60002;SDS011;46322;52.018;8.702;2023-04-28T12:39:34;76.15;;;36.92;;
60002;SDS011;46322;52.018;8.702;2023-04-28T12:44:55;65.43;;;35.65;;
60002;SDS011;46322;52.018;8.702;2023-04-28T12:50:16;77.70;;;36.70;;
60002;SDS011;46322;52.018;8.702;2023-04-28T12:55:37;69.65;;;37.22;;
60002;SDS011;46322;52.018;8.702;2023-04-28T13:00:57;68.45;;;36.92;;
60002;SDS011;46322;52.018;8.702;2023-04-28T13:06:18;66.70;;;37.23;;
60002;SDS011;46322;52.018;8.702;2023-04-28T13:11:39;66.97;;;36.58;;
60002;SDS011;46322;52.018;8.702;2023-04-28T13:16:59;66.80;;;37.55;;
60002;SDS011;46322;52.018;8.702;2023-04-28T13:22:20;67.97;;;38.07;;
60002;SDS011;46322;52.018;8.702;2023-04-28T13:27:41;80.78;;;37.00;;
60002;SDS011;46322;52.018;8.702;2023-04-28T13:33:01;78.30;;;36.28;;
60002;SDS011;46322;52.018;8.702;2023-04-28T13:38:22;77.10;;;36.50;;
60002;SDS011;46322;52.018;8.702;2023-04-28T13:43:43;77.70;;;35.97;;
60002;SDS011;46322;52.018;8.702;2023-04-28T13:49:04;76.85;;;35.83;;
60002;SDS011;46322;52.018;8.702;2023-04-28T13:54:24;81.05;;;35.55;;
60002;SDS011;46322;52.018;8.702;2023-04-28T13:59:45;79.23;;;35.13;;
60002;SDS011;46322;52.018;8.702;2023-04-28T14:05:05;78.25;;;34.92;;
60002;SDS011;46322;52.018;8.702;2023-04-28T14:10:26;73.75;;;35.35;;
60002;SDS011;46322;52.018;8.702;2023-04-28T14:15:47;73.13;;;35.33;;
60002;SDS011;46322;52.018;8.702;2023-04-28T14:21:07;69.55;;;35.03;;
60002;SDS011;46322;52.018;8.702;2023-04-28T14:26:28;70.25;;;34.67;;
60002;SDS011;46322;52.018;8.702;2023-04-28T14:31:48;70.55;;;34.17;;
60002;SDS011;46322;52.018;8.702;2023-04-28T14:37:09;69.20;;;33.78;;
60002;SDS011;46322;52.018;8.702;2023-04-28T14:42:31;69.17;;;35.17;;
60002;SDS011;46322;52.018;8.702;2023-04-28T14:47:52;70.03;;;35.00;;
60002;SDS011;46322;52.018;8.702;2023-04-28T14:53:13;72.60;;;34.47;;
60002;SDS011;46322;52.018;8.702;2023-04-28T14:58:34;70.57;;;33.72;;
60002;SDS011;46322;52.018;8.702;2023-04-28T15:03:55;68.35;;;34.72;;
60002;SDS011;46322;52.018;8.702;2023-04-28T15:09:15;71.32;;;34.35;;
60002;SDS011;46322;52.018;8.702;2023-04-28T15:14:36;76.87;;;34.50;;
60002;SDS011;46322;52.018;8.702;2023-04-28T15:19:56;73.65;;;34.25;;
60002;SDS011;46322;52.018;8.702;2023-04-28T15:25:17;67.83;;;33.90;;
60002;SDS011;46322;52.018;8.702;2023-04-28T15:30:38;67.63;;;33.55;;
60002;SDS011;46322;52.018;8.702;2023-04-28T15:35:58;73.37;;;33.17;;
60002;SDS011;46322;52.018;8.702;2023-04-28T15:41:19;68.10;;;33.75;;
60002;SDS011;46322;52.018;8.702;2023-04-28T15:46:40;61.42;;;33.90;;
60002;SDS011;46322;52.018;8.702;2023-04-28T15:52:00;72.07;;;35.40;;
60002;SDS011;46322;52.018;8.702;2023-04-28T15:57:21;76.72;;;34.67;;
60002;SDS011;46322;52.018;8.702;2023-04-28T16:02:42;66.28;;;35.42;;
60002;SDS011;46322;52.018;8.702;2023-04-28T16:08:03;66.53;;;34.47;;
60002;SDS011;46322;52.018;8.702;2023-04-28T16:13:23;67.37;;;34.53;;
60002;SDS011;46322;52.018;8.702;2023-04-28T16:18:44;66.88;;;34.08;;
60002;SDS011;46322;52.018;8.702;2023-04-28T16:24:04;64.32;;;33.67;;
60002;SDS011;46322;52.018;8.702;2023-04-28T16:29:25;69.00;;;33.03;;
60002;SDS011;46322;52.018;8.702;2023-04-28T16:34:45;67.50;;;33.08;;
60002;SDS011;46322;52.018;8.702;2023-04-28T16:40:06;67.63;;;33.53;;
60002;SDS011;46322;52.018;8.702;2023-04-28T16:45:28;64.93;;;33.28;;
60002;SDS011;46322;52.018;8.702;2023-04-28T16:50:48;64.20;;;33.33;;
60002;SDS011;46322;52.018;8.702;2023-04-28T16:56:09;63.45;;;33.05;;
60002;SDS011;46322;52.018;8.702;2023-04-28T17:01:29;65.50;;;33.60;;
60002;SDS011;46322;52.018;8.702;2023-04-28T17:06:50;64.20;;;33.40;;
60002;SDS011;46322;52.018;8.702;2023-04-28T17:12:11;65.53;;;34.38;;
60002;SDS011;46322;52.018;8.702;2023-04-28T17:17:32;84.20;;;33.27;;
60002;SDS011;46322;52.018;8.702;2023-04-28T17:22:52;69.47;;;34.58;;
60002;SDS011;46322;52.018;8.702;2023-04-28T17:28:13;73.73;;;34.17;;
60002;SDS011;46322;52.018;8.702;2023-04-28T17:33:33;69.88;;;35.70;;
60002;SDS011;46322;52.018;8.702;2023-04-28T17:38:54;65.47;;;34.10;;
60002;SDS011;46322;52.018;8.702;2023-04-28T17:44:15;84.40;;;32.35;;
60002;SDS011;46322;52.018;8.702;2023-04-28T17:49:37;63.30;;;32.57;;
60002;SDS011;46322;52.018;8.702;2023-04-28T17:54:57;63.33;;;32.00;;
60002;SDS011;46322;52.018;8.702;2023-04-28T18:00:18;67.18;;;32.60;;
60002;SDS011;46322;52.018;8.702;2023-04-28T18:05:38;69.57;;;32.33;;
60002;SDS011;46322;52.018;8.702;2023-04-28T18:10:59;69.50;;;32.42;;
60002;SDS011;46322;52.018;8.702;2023-04-28T18:16:20;70.13;;;32.33;;
60002;SDS011;46322;52.018;8.702;2023-04-28T18:21:40;68.95;;;31.80;;
60002;SDS011;46322;52.018;8.702;2023-04-28T18:27:01;84.60;;;31.80;;
60002;SDS011;46322;52.018;8.702;2023-04-28T18:32:21;86.95;;;31.48;;
60002;SDS011;46322;52.018;8.702;2023-04-28T18:37:42;86.30;;;31.80;;
60002;SDS011;46322;52.018;8.702;2023-04-28T18:43:06;85.00;;;33.70;;
60002;SDS011;46322;52.018;8.702;2023-04-28T18:48:28;87.40;;;42.00;;
60002;SDS011;46322;52.018;8.702;2023-04-28T18:53:48;73.72;;;38.40;;
60002;SDS011;46322;52.018;8.702;2023-04-28T18:59:10;81.13;;;50.40;;
60002;SDS011;46322;52.018;8.702;2023-04-28T19:04:30;83.63;;;53.93;;
60002;SDS011;46322;52.018;8.702;2023-04-28T19:09:51;83.78;;;54.17;;
60002;SDS011;46322;52.018;8.702;2023-04-28T19:15:12;86.10;;;50.23;;
60002;SDS011;46322;52.018;8.702;2023-04-28T19:20:32;83.85;;;44.13;;
60002;SDS011;46322;52.018;8.702;2023-04-28T19:25:53;82.40;;;42.80;;
60002;SDS011;46322;52.018;8.702;2023-04-28T19:31:14;78.53;;;34.63;;
60002;SDS011;46322;52.018;8.702;2023-04-28T19:36:34;73.32;;;32.30;;
60002;SDS011;46322;52.018;8.702;2023-04-28T19:41:55;74.37;;;31.53;;
60002;SDS011;46322;52.018;8.702;2023-04-28T19:47:22;72.10;;;31.38;;
60002;SDS011;46322;52.018;8.702;2023-04-28T19:52:47;85.10;;;32.17;;
60002;SDS011;46322;52.018;8.702;2023-04-28T19:58:07;80.30;;;33.10;;
60002;SDS011;46322;52.018;8.702;2023-04-28T20:03:28;82.45;;;33.28;;
60002;SDS011;46322;52.018;8.702;2023-04-28T20:08:48;63.57;;;31.47;;
60002;SDS011;46322;52.018;8.702;2023-04-28T20:14:09;74.03;;;35.67;;
60002;SDS011;46322;52.018;8.702;2023-04-28T20:19:30;82.67;;;38.73;;
60002;SDS011;46322;52.018;8.702;2023-04-28T20:24:50;69.82;;;33.72;;
60002;SDS011;46322;52.018;8.702;2023-04-28T20:30:11;75.47;;;33.10;;
60002;SDS011;46322;52.018;8.702;2023-04-28T20:35:32;77.83;;;32.03;;
60002;SDS011;46322;52.018;8.702;2023-04-28T20:40:52;78.65;;;36.67;;
60002;SDS011;46322;52.018;8.702;2023-04-28T20:46:14;79.38;;;38.55;;
60002;SDS011;46322;52.018;8.702;2023-04-28T20:51:35;86.45;;;45.00;;
60002;SDS011;46322;52.018;8.702;2023-04-28T20:56:55;89.25;;;52.58;;
60002;SDS011;46322;52.018;8.702;2023-04-28T21:02:16;89.18;;;65.30;;
60002;SDS011;46322;52.018;8.702;2023-04-28T21:07:36;94.00;;;65.43;;
60002;SDS011;46322;52.018;8.702;2023-04-28T21:12:57;85.75;;;58.10;;
60002;SDS011;46322;52.018;8.702;2023-04-28T21:18:18;79.13;;;52.83;;
60002;SDS011;46322;52.018;8.702;2023-04-28T21:23:38;89.57;;;63.40;;
60002;SDS011;46322;52.018;8.702;2023-04-28T21:28:59;90.38;;;52.25;;
60002;SDS011;46322;52.018;8.702;2023-04-28T21:34:19;94.05;;;56.60;;
60002;SDS011;46322;52.018;8.702;2023-04-28T21:39:40;88.97;;;52.97;;
60002;SDS011;46322;52.018;8.702;2023-04-28T21:45:01;88.57;;;49.87;;
60002;SDS011;46322;52.018;8.702;2023-04-28T21:50:21;78.80;;;36.22;;
60002;SDS011;46322;52.018;8.702;2023-04-28T21:55:42;77.80;;;34.27;;
60002;SDS011;46322;52.018;8.702;2023-04-28T22:01:03;80.10;;;41.60;;
60002;SDS011;46322;52.018;8.702;2023-04-28T22:06:24;87.88;;;52.65;;
60002;SDS011;46322;52.018;8.702;2023-04-28T22:11:44;82.95;;;50.67;;
60002;SDS011;46322;52.018;8.702;2023-04-28T22:17:05;89.50;;;54.97;;
60002;SDS011;46322;52.018;8.702;2023-04-28T22:22:26;81.88;;;48.33;;
60002;SDS011;46322;52.018;8.702;2023-04-28T22:27:46;77.97;;;41.93;;
60002;SDS011;46322;52.018;8.702;2023-04-28T22:33:07;89.18;;;50.67;;
60002;SDS011;46322;52.018;8.702;2023-04-28T22:38:27;89.07;;;51.90;;
60002;SDS011;46322;52.018;8.702;2023-04-28T22:43:48;97.18;;;64.32;;
60002;SDS011;46322;52.018;8.702;2023-04-28T22:49:08;97.67;;;71.43;;
60002;SDS011;46322;52.018;8.702;2023-04-28T22:54:29;93.35;;;76.03;;
60002;SDS011;46322;52.018;8.702;2023-04-28T22:59:50;101.30;;;87.33;;
60002;SDS011;46322;52.018;8.702;2023-04-28T23:05:10;103.10;;;85.53;;
60002;SDS011;46322;52.018;8.702;2023-04-28T23:10:31;100.47;;;89.47;;
60002;SDS011;46322;52.018;8.702;2023-04-28T23:15:51;101.82;;;89.28;;
60002;SDS011;46322;52.018;8.702;2023-04-28T23:21:12;111.13;;;86.75;;
60002;SDS011;46322;52.018;8.702;2023-04-28T23:26:33;100.30;;;89.83;;
60002;SDS011;46322;52.018;8.702;2023-04-28T23:31:53;108.68;;;88.72;;
60002;SDS011;46322;52.018;8.702;2023-04-28T23:37:14;105.23;;;90.93;;
60002;SDS011;46322;52.018;8.702;2023-04-28T23:42:34;102.97;;;92.50;;
60002;SDS011;46322;52.018;8.702;2023-04-28T23:47:55;103.37;;;92.07;;
60002;SDS011;46322;52.018;8.702;2023-04-28T23:53:16;108.85;;;90.45;;
60002;SDS011;46322;52.018;8.702;2023-04-28T23:58:36;105.30;;;94.03;;
